sensor_id;sensor_type;location;lat;lon;timestamp;temperature;humidity
22682;DHT22;11508;50.856;4.380;2022-12-18T00:01:04;-0.50;46.70
22682;DHT22;11508;50.856;4.380;2022-12-18T00:03:34;-0.70;57.00
22682;DHT22;11508;50.856;4.380;2022-12-18T00:06:03;-0.70;54.40
22682;DHT22;11508;50.856;4.380;2022-12-18T00:08:32;-0.70;58.50
22682;DHT22;11508;50.856;4.380;2022-12-18T00:11:07;-0.70;58.00
22682;DHT22;11508;50.856;4.380;2022-12-18T00:13:36;-0.70;56.00
22682;DHT22;11508;50.856;4.380;2022-12-18T00:16:10;-0.70;53.40
22682;DHT22;11508;50.856;4.380;2022-12-18T00:18:36;-0.70;53.00
22682;DHT22;11508;50.856;4.380;2022-12-18T00:21:06;-1.00;54.70
22682;DHT22;11508;50.856;4.380;2022-12-18T00:23:34;-1.10;59.60
22682;DHT22;11508;50.856;4.380;2022-12-18T00:26:04;-1.10;68.60
22682;DHT22;11508;50.856;4.380;2022-12-18T00:28:32;-1.10;65.80
22682;DHT22;11508;50.856;4.380;2022-12-18T00:31:03;-1.10;67.90
22682;DHT22;11508;50.856;4.380;2022-12-18T00:33:33;-1.10;74.50
22682;DHT22;11508;50.856;4.380;2022-12-18T00:36:17;-1.10;65.60
22682;DHT22;11508;50.856;4.380;2022-12-18T00:38:44;-1.00;58.80
22682;DHT22;11508;50.856;4.380;2022-12-18T00:41:11;-1.00;50.50
22682;DHT22;11508;50.856;4.380;2022-12-18T00:43:38;-1.00;44.50
22682;DHT22;11508;50.856;4.380;2022-12-18T00:46:04;-1.00;36.60
22682;DHT22;11508;50.856;4.380;2022-12-18T00:48:30;-1.10;32.40
22682;DHT22;11508;50.856;4.380;2022-12-18T00:50:56;-1.00;28.00
22682;DHT22;11508;50.856;4.380;2022-12-18T00:53:22;-1.10;22.00
22682;DHT22;11508;50.856;4.380;2022-12-18T00:55:48;-1.10;20.70
22682;DHT22;11508;50.856;4.380;2022-12-18T00:58:15;-1.10;16.50
22682;DHT22;11508;50.856;4.380;2022-12-18T01:00:41;-1.10;13.70
22682;DHT22;11508;50.856;4.380;2022-12-18T01:03:07;-1.00;11.10
22682;DHT22;11508;50.856;4.380;2022-12-18T01:05:33;-1.00;6.60
22682;DHT22;11508;50.856;4.380;2022-12-18T01:07:59;-0.90;4.90
22682;DHT22;11508;50.856;4.380;2022-12-18T01:10:25;-0.80;1.00
22682;DHT22;11508;50.856;4.380;2022-12-18T01:12:52;-0.70;1.00
22682;DHT22;11508;50.856;4.380;2022-12-18T01:15:18;-0.70;1.00
22682;DHT22;11508;50.856;4.380;2022-12-18T01:17:47;-0.80;1.00
22682;DHT22;11508;50.856;4.380;2022-12-18T01:20:13;-0.90;1.00
22682;DHT22;11508;50.856;4.380;2022-12-18T01:22:39;-0.90;1.00
22682;DHT22;11508;50.856;4.380;2022-12-18T01:25:05;-0.90;1.00
22682;DHT22;11508;50.856;4.380;2022-12-18T01:27:37;-1.10;1.00
22682;DHT22;11508;50.856;4.380;2022-12-18T01:30:03;-1.10;1.00
22682;DHT22;11508;50.856;4.380;2022-12-18T01:32:30;-1.10;1.00
22682;DHT22;11508;50.856;4.380;2022-12-18T01:34:57;-1.00;1.00
22682;DHT22;11508;50.856;4.380;2022-12-18T01:37:22;-1.00;1.00
22682;DHT22;11508;50.856;4.380;2022-12-18T01:39:48;-1.10;1.00
22682;DHT22;11508;50.856;4.380;2022-12-18T01:42:16;-1.10;1.00
22682;DHT22;11508;50.856;4.380;2022-12-18T01:48:08;-1.00;1.00
22682;DHT22;11508;50.856;4.380;2022-12-18T01:50:40;-0.90;1.00
22682;DHT22;11508;50.856;4.380;2022-12-18T01:53:14;-0.90;1.00
22682;DHT22;11508;50.856;4.380;2022-12-18T01:55:43;-0.90;1.00
22682;DHT22;11508;50.856;4.380;2022-12-18T01:58:13;-0.90;1.00
22682;DHT22;11508;50.856;4.380;2022-12-18T02:00:39;-1.00;1.00
22682;DHT22;11508;50.856;4.380;2022-12-18T02:03:05;-1.00;1.00
22682;DHT22;11508;50.856;4.380;2022-12-18T02:05:59;-1.00;1.00
22682;DHT22;11508;50.856;4.380;2022-12-18T02:08:58;-1.00;1.00
22682;DHT22;11508;50.856;4.380;2022-12-18T02:17:22;-0.90;1.00
22682;DHT22;11508;50.856;4.380;2022-12-18T02:27:40;-0.80;1.00
22682;DHT22;11508;50.856;4.380;2022-12-18T02:30:07;-0.80;1.00
22682;DHT22;11508;50.856;4.380;2022-12-18T02:32:38;-0.80;1.00
22682;DHT22;11508;50.856;4.380;2022-12-18T02:35:06;-0.80;1.00
22682;DHT22;11508;50.856;4.380;2022-12-18T02:37:34;-0.90;1.00
22682;DHT22;11508;50.856;4.380;2022-12-18T02:40:02;-0.90;1.00
22682;DHT22;11508;50.856;4.380;2022-12-18T02:42:29;-0.90;1.00
22682;DHT22;11508;50.856;4.380;2022-12-18T02:44:54;-0.90;1.00
22682;DHT22;11508;50.856;4.380;2022-12-18T02:47:23;-0.80;1.00
22682;DHT22;11508;50.856;4.380;2022-12-18T02:58:30;-1.10;1.00
22682;DHT22;11508;50.856;4.380;2022-12-18T03:01:09;-1.30;1.00
22682;DHT22;11508;50.856;4.380;2022-12-18T03:03:52;-1.60;1.00
22682;DHT22;11508;50.856;4.380;2022-12-18T03:06:32;-1.60;4.30
22682;DHT22;11508;50.856;4.380;2022-12-18T03:09:07;-1.70;6.90
22682;DHT22;11508;50.856;4.380;2022-12-18T03:11:38;-1.80;14.60
22682;DHT22;11508;50.856;4.380;2022-12-18T03:14:25;-1.70;17.40
22682;DHT22;11508;50.856;4.380;2022-12-18T03:16:54;-2.00;17.40
22682;DHT22;11508;50.856;4.380;2022-12-18T03:19:25;-2.10;23.80
22682;DHT22;11508;50.856;4.380;2022-12-18T03:21:55;-2.10;25.50
22682;DHT22;11508;50.856;4.380;2022-12-18T03:24:23;-2.10;24.30
22682;DHT22;11508;50.856;4.380;2022-12-18T03:26:53;-2.00;22.70
22682;DHT22;11508;50.856;4.380;2022-12-18T03:29:42;-2.10;18.80
22682;DHT22;11508;50.856;4.380;2022-12-18T03:32:16;-2.00;19.30
22682;DHT22;11508;50.856;4.380;2022-12-18T03:34:44;-2.10;16.50
22682;DHT22;11508;50.856;4.380;2022-12-18T03:37:13;-2.20;16.40
22682;DHT22;11508;50.856;4.380;2022-12-18T03:39:38;-2.20;17.90
22682;DHT22;11508;50.856;4.380;2022-12-18T03:42:14;-2.10;17.30
22682;DHT22;11508;50.856;4.380;2022-12-18T03:55:43;-1.90;9.20
22682;DHT22;11508;50.856;4.380;2022-12-18T03:58:11;-1.80;6.00
22682;DHT22;11508;50.856;4.380;2022-12-18T04:00:39;-1.90;1.90
22682;DHT22;11508;50.856;4.380;2022-12-18T04:03:06;-2.00;1.00
22682;DHT22;11508;50.856;4.380;2022-12-18T04:05:33;-2.10;1.00
22682;DHT22;11508;50.856;4.380;2022-12-18T04:08:00;-2.10;1.40
22682;DHT22;11508;50.856;4.380;2022-12-18T04:10:26;-2.10;1.00
22682;DHT22;11508;50.856;4.380;2022-12-18T04:12:55;-2.10;1.00
22682;DHT22;11508;50.856;4.380;2022-12-18T04:15:21;-2.30;1.00
22682;DHT22;11508;50.856;4.380;2022-12-18T04:17:48;-2.40;1.00
22682;DHT22;11508;50.856;4.380;2022-12-18T04:20:14;-2.40;3.10
22682;DHT22;11508;50.856;4.380;2022-12-18T04:22:40;-2.40;3.20
22682;DHT22;11508;50.856;4.380;2022-12-18T04:25:06;-2.50;5.70
22682;DHT22;11508;50.856;4.380;2022-12-18T04:27:32;-2.40;6.90
22682;DHT22;11508;50.856;4.380;2022-12-18T04:29:58;-2.40;3.90
22682;DHT22;11508;50.856;4.380;2022-12-18T04:32:23;-2.50;6.90
22682;DHT22;11508;50.856;4.380;2022-12-18T04:34:49;-2.40;3.80
22682;DHT22;11508;50.856;4.380;2022-12-18T04:37:15;-2.40;4.30
22682;DHT22;11508;50.856;4.380;2022-12-18T04:39:40;-2.30;1.40
22682;DHT22;11508;50.856;4.380;2022-12-18T04:42:06;-2.30;1.00
22682;DHT22;11508;50.856;4.380;2022-12-18T04:44:32;-2.30;1.00
22682;DHT22;11508;50.856;4.380;2022-12-18T04:46:57;-2.30;1.00
22682;DHT22;11508;50.856;4.380;2022-12-18T04:49:26;-2.20;1.00
22682;DHT22;11508;50.856;4.380;2022-12-18T04:51:52;-2.10;1.00
22682;DHT22;11508;50.856;4.380;2022-12-18T04:54:18;-2.10;1.00
22682;DHT22;11508;50.856;4.380;2022-12-18T04:56:44;-2.00;1.00
22682;DHT22;11508;50.856;4.380;2022-12-18T04:59:09;-2.00;1.00
22682;DHT22;11508;50.856;4.380;2022-12-18T05:01:35;-2.00;1.00
22682;DHT22;11508;50.856;4.380;2022-12-18T05:04:01;-1.90;1.00
22682;DHT22;11508;50.856;4.380;2022-12-18T05:06:27;-2.10;1.00
22682;DHT22;11508;50.856;4.380;2022-12-18T05:08:53;-2.10;1.00
22682;DHT22;11508;50.856;4.380;2022-12-18T05:11:18;-2.10;1.00
22682;DHT22;11508;50.856;4.380;2022-12-18T05:13:45;-2.20;1.00
22682;DHT22;11508;50.856;4.380;2022-12-18T05:16:12;-2.20;1.00
22682;DHT22;11508;50.856;4.380;2022-12-18T05:18:38;-2.20;1.00
22682;DHT22;11508;50.856;4.380;2022-12-18T05:21:04;-2.20;1.00
22682;DHT22;11508;50.856;4.380;2022-12-18T05:23:30;-2.20;1.00
22682;DHT22;11508;50.856;4.380;2022-12-18T05:26:00;-2.30;1.00
22682;DHT22;11508;50.856;4.380;2022-12-18T05:28:27;-2.30;1.00
22682;DHT22;11508;50.856;4.380;2022-12-18T05:30:57;-2.20;1.00
22682;DHT22;11508;50.856;4.380;2022-12-18T05:33:24;-2.20;1.00
22682;DHT22;11508;50.856;4.380;2022-12-18T05:35:51;-2.20;1.00
22682;DHT22;11508;50.856;4.380;2022-12-18T05:38:18;-2.10;1.00
22682;DHT22;11508;50.856;4.380;2022-12-18T05:40:43;-2.20;1.00
22682;DHT22;11508;50.856;4.380;2022-12-18T05:43:10;-2.30;1.00
22682;DHT22;11508;50.856;4.380;2022-12-18T05:45:40;-2.30;1.00
22682;DHT22;11508;50.856;4.380;2022-12-18T05:48:06;-2.30;1.00
22682;DHT22;11508;50.856;4.380;2022-12-18T05:50:36;-2.20;1.00
22682;DHT22;11508;50.856;4.380;2022-12-18T05:53:03;-2.20;1.00
22682;DHT22;11508;50.856;4.380;2022-12-18T05:55:32;-2.20;1.00
22682;DHT22;11508;50.856;4.380;2022-12-18T05:57:58;-2.10;1.00
22682;DHT22;11508;50.856;4.380;2022-12-18T06:00:25;-2.00;1.00
22682;DHT22;11508;50.856;4.380;2022-12-18T06:02:51;-2.00;1.00
22682;DHT22;11508;50.856;4.380;2022-12-18T06:05:17;-2.10;1.00
22682;DHT22;11508;50.856;4.380;2022-12-18T06:07:42;-2.20;1.00
22682;DHT22;11508;50.856;4.380;2022-12-18T06:10:08;-2.20;1.00
22682;DHT22;11508;50.856;4.380;2022-12-18T06:12:34;-2.20;1.00
22682;DHT22;11508;50.856;4.380;2022-12-18T06:15:00;-2.30;1.00
22682;DHT22;11508;50.856;4.380;2022-12-18T06:17:34;-2.40;1.00
22682;DHT22;11508;50.856;4.380;2022-12-18T06:20:00;-2.30;1.00
22682;DHT22;11508;50.856;4.380;2022-12-18T06:22:26;-2.20;1.00
22682;DHT22;11508;50.856;4.380;2022-12-18T06:24:52;-2.10;1.00
22682;DHT22;11508;50.856;4.380;2022-12-18T06:27:18;-2.20;1.00
22682;DHT22;11508;50.856;4.380;2022-12-18T06:29:44;-2.20;1.00
22682;DHT22;11508;50.856;4.380;2022-12-18T06:32:10;-2.20;1.00
22682;DHT22;11508;50.856;4.380;2022-12-18T06:34:37;-2.10;1.00
22682;DHT22;11508;50.856;4.380;2022-12-18T06:37:03;-2.00;1.00
22682;DHT22;11508;50.856;4.380;2022-12-18T06:39:29;-1.90;1.00
22682;DHT22;11508;50.856;4.380;2022-12-18T06:41:55;-1.90;1.00
22682;DHT22;11508;50.856;4.380;2022-12-18T06:44:21;-1.90;1.00
22682;DHT22;11508;50.856;4.380;2022-12-18T06:46:47;-1.80;1.00
22682;DHT22;11508;50.856;4.380;2022-12-18T06:49:13;-1.70;1.00
22682;DHT22;11508;50.856;4.380;2022-12-18T06:51:39;-1.70;1.00
22682;DHT22;11508;50.856;4.380;2022-12-18T06:54:04;-1.60;1.00
22682;DHT22;11508;50.856;4.380;2022-12-18T06:56:30;-1.60;1.00
22682;DHT22;11508;50.856;4.380;2022-12-18T06:58:56;-1.80;1.00
22682;DHT22;11508;50.856;4.380;2022-12-18T07:01:22;-1.80;1.00
22682;DHT22;11508;50.856;4.380;2022-12-18T07:03:52;-1.80;1.00
22682;DHT22;11508;50.856;4.380;2022-12-18T07:06:20;-1.70;1.00
22682;DHT22;11508;50.856;4.380;2022-12-18T07:08:47;-1.60;1.00
22682;DHT22;11508;50.856;4.380;2022-12-18T07:11:13;-1.60;1.00
22682;DHT22;11508;50.856;4.380;2022-12-18T07:13:39;-1.70;1.00
22682;DHT22;11508;50.856;4.380;2022-12-18T07:18:32;-1.60;1.00
22682;DHT22;11508;50.856;4.380;2022-12-18T07:20:58;-1.70;1.00
22682;DHT22;11508;50.856;4.380;2022-12-18T07:23:23;-1.70;1.00
22682;DHT22;11508;50.856;4.380;2022-12-18T07:25:49;-1.70;1.00
22682;DHT22;11508;50.856;4.380;2022-12-18T07:28:15;-1.60;1.00
22682;DHT22;11508;50.856;4.380;2022-12-18T07:30:40;-1.60;1.00
22682;DHT22;11508;50.856;4.380;2022-12-18T07:33:06;-1.60;1.00
22682;DHT22;11508;50.856;4.380;2022-12-18T07:35:33;-1.70;1.00
22682;DHT22;11508;50.856;4.380;2022-12-18T07:37:59;-1.80;1.00
22682;DHT22;11508;50.856;4.380;2022-12-18T07:40:25;-1.80;1.00
22682;DHT22;11508;50.856;4.380;2022-12-18T07:42:50;-1.80;1.00
22682;DHT22;11508;50.856;4.380;2022-12-18T07:45:16;-1.90;1.00
22682;DHT22;11508;50.856;4.380;2022-12-18T07:47:42;-1.80;1.00
22682;DHT22;11508;50.856;4.380;2022-12-18T07:50:08;-1.70;1.00
22682;DHT22;11508;50.856;4.380;2022-12-18T07:52:33;-1.70;1.00
22682;DHT22;11508;50.856;4.380;2022-12-18T07:54:59;-1.70;1.00
22682;DHT22;11508;50.856;4.380;2022-12-18T07:57:25;-1.60;1.00
22682;DHT22;11508;50.856;4.380;2022-12-18T07:59:50;-1.60;1.00
22682;DHT22;11508;50.856;4.380;2022-12-18T08:02:16;-1.60;1.00
22682;DHT22;11508;50.856;4.380;2022-12-18T08:04:42;-1.70;1.00
22682;DHT22;11508;50.856;4.380;2022-12-18T08:07:08;-1.70;1.00
22682;DHT22;11508;50.856;4.380;2022-12-18T08:09:33;-1.80;1.00
22682;DHT22;11508;50.856;4.380;2022-12-18T08:11:59;-1.80;1.00
22682;DHT22;11508;50.856;4.380;2022-12-18T08:14:25;-1.70;1.00
22682;DHT22;11508;50.856;4.380;2022-12-18T08:16:50;-1.60;1.00
22682;DHT22;11508;50.856;4.380;2022-12-18T08:19:16;-1.60;1.00
22682;DHT22;11508;50.856;4.380;2022-12-18T08:21:41;-1.60;1.00
22682;DHT22;11508;50.856;4.380;2022-12-18T08:24:09;-1.40;1.00
22682;DHT22;11508;50.856;4.380;2022-12-18T08:26:35;-1.40;1.00
22682;DHT22;11508;50.856;4.380;2022-12-18T08:29:01;-1.30;1.00
22682;DHT22;11508;50.856;4.380;2022-12-18T08:31:28;-1.40;1.00
22682;DHT22;11508;50.856;4.380;2022-12-18T08:33:54;-1.50;1.00
22682;DHT22;11508;50.856;4.380;2022-12-18T08:36:20;-1.40;1.00
22682;DHT22;11508;50.856;4.380;2022-12-18T08:38:48;-1.30;1.00
22682;DHT22;11508;50.856;4.380;2022-12-18T08:41:16;-1.20;1.00
22682;DHT22;11508;50.856;4.380;2022-12-18T08:43:42;-1.20;1.00
22682;DHT22;11508;50.856;4.380;2022-12-18T08:46:31;-1.20;1.00
22682;DHT22;11508;50.856;4.380;2022-12-18T08:48:58;-1.20;1.00
22682;DHT22;11508;50.856;4.380;2022-12-18T08:51:24;-1.20;1.00
22682;DHT22;11508;50.856;4.380;2022-12-18T08:53:49;-1.10;1.00
22682;DHT22;11508;50.856;4.380;2022-12-18T08:56:16;-1.00;1.00
22682;DHT22;11508;50.856;4.380;2022-12-18T08:58:42;-0.90;1.00
22682;DHT22;11508;50.856;4.380;2022-12-18T09:01:09;-0.90;1.00
22682;DHT22;11508;50.856;4.380;2022-12-18T09:03:36;-0.90;1.00
22682;DHT22;11508;50.856;4.380;2022-12-18T09:06:02;-0.90;1.00
22682;DHT22;11508;50.856;4.380;2022-12-18T09:08:28;-0.90;1.00
22682;DHT22;11508;50.856;4.380;2022-12-18T09:10:55;-0.70;1.00
22682;DHT22;11508;50.856;4.380;2022-12-18T09:13:21;-0.50;1.00
22682;DHT22;11508;50.856;4.380;2022-12-18T09:15:50;-0.50;1.00
22682;DHT22;11508;50.856;4.380;2022-12-18T09:18:17;-0.40;1.00
22682;DHT22;11508;50.856;4.380;2022-12-18T09:20:43;-0.40;1.00
22682;DHT22;11508;50.856;4.380;2022-12-18T09:23:09;-0.40;1.00
22682;DHT22;11508;50.856;4.380;2022-12-18T09:25:36;-0.30;1.00
22682;DHT22;11508;50.856;4.380;2022-12-18T09:28:04;-0.20;1.00
22682;DHT22;11508;50.856;4.380;2022-12-18T09:30:30;-0.20;1.00
22682;DHT22;11508;50.856;4.380;2022-12-18T09:32:58;-0.20;1.00
22682;DHT22;11508;50.856;4.380;2022-12-18T09:35:24;-0.20;1.00
22682;DHT22;11508;50.856;4.380;2022-12-18T09:37:50;-0.20;1.00
22682;DHT22;11508;50.856;4.380;2022-12-18T09:40:18;-0.10;1.00
22682;DHT22;11508;50.856;4.380;2022-12-18T09:42:52;0.00;1.00
22682;DHT22;11508;50.856;4.380;2022-12-18T09:45:20;-0.10;1.00
22682;DHT22;11508;50.856;4.380;2022-12-18T09:47:51;0.00;1.00
22682;DHT22;11508;50.856;4.380;2022-12-18T09:50:34;-0.10;1.00
22682;DHT22;11508;50.856;4.380;2022-12-18T09:53:22;-0.20;1.00
22682;DHT22;11508;50.856;4.380;2022-12-18T09:55:51;-0.20;1.00
22682;DHT22;11508;50.856;4.380;2022-12-18T09:58:26;0.00;1.00
22682;DHT22;11508;50.856;4.380;2022-12-18T10:00:54;0.10;1.00
22682;DHT22;11508;50.856;4.380;2022-12-18T10:03:20;0.30;1.00
22682;DHT22;11508;50.856;4.380;2022-12-18T10:06:02;0.40;1.00
22682;DHT22;11508;50.856;4.380;2022-12-18T10:14:44;0.40;1.00
22682;DHT22;11508;50.856;4.380;2022-12-18T10:17:38;0.30;1.00
22682;DHT22;11508;50.856;4.380;2022-12-18T10:28:13;0.60;1.00
22682;DHT22;11508;50.856;4.380;2022-12-18T10:30:40;0.60;1.00
22682;DHT22;11508;50.856;4.380;2022-12-18T10:33:11;0.60;1.00
22682;DHT22;11508;50.856;4.380;2022-12-18T10:35:40;0.80;1.00
22682;DHT22;11508;50.856;4.380;2022-12-18T10:41:02;0.90;1.00
22682;DHT22;11508;50.856;4.380;2022-12-18T10:43:33;0.80;1.00
22682;DHT22;11508;50.856;4.380;2022-12-18T10:51:29;1.00;1.00
22682;DHT22;11508;50.856;4.380;2022-12-18T10:54:05;1.00;1.00
22682;DHT22;11508;50.856;4.380;2022-12-18T10:56:35;0.90;1.00
22682;DHT22;11508;50.856;4.380;2022-12-18T10:59:04;0.90;1.00
22682;DHT22;11508;50.856;4.380;2022-12-18T11:04:21;0.70;1.00
22682;DHT22;11508;50.856;4.380;2022-12-18T11:06:57;0.70;1.00
22682;DHT22;11508;50.856;4.380;2022-12-18T11:09:28;0.70;1.00
22682;DHT22;11508;50.856;4.380;2022-12-18T11:11:56;0.70;1.00
22682;DHT22;11508;50.856;4.380;2022-12-18T11:14:32;0.90;1.00
22682;DHT22;11508;50.856;4.380;2022-12-18T11:17:00;0.90;1.00
22682;DHT22;11508;50.856;4.380;2022-12-18T11:19:39;1.10;1.00
22682;DHT22;11508;50.856;4.380;2022-12-18T11:22:31;1.20;1.00
22682;DHT22;11508;50.856;4.380;2022-12-18T11:25:00;1.40;1.00
22682;DHT22;11508;50.856;4.380;2022-12-18T11:27:28;1.60;1.00
22682;DHT22;11508;50.856;4.380;2022-12-18T11:30:09;1.90;1.00
22682;DHT22;11508;50.856;4.380;2022-12-18T11:32:40;2.00;1.00
22682;DHT22;11508;50.856;4.380;2022-12-18T11:35:19;2.00;1.00
22682;DHT22;11508;50.856;4.380;2022-12-18T11:38:00;2.00;1.00
22682;DHT22;11508;50.856;4.380;2022-12-18T11:40:36;1.70;1.00
22682;DHT22;11508;50.856;4.380;2022-12-18T11:43:06;1.60;1.00
22682;DHT22;11508;50.856;4.380;2022-12-18T11:45:50;1.60;1.00
22682;DHT22;11508;50.856;4.380;2022-12-18T11:48:24;1.60;1.00
22682;DHT22;11508;50.856;4.380;2022-12-18T11:50:54;1.50;1.00
22682;DHT22;11508;50.856;4.380;2022-12-18T11:53:21;1.60;1.00
22682;DHT22;11508;50.856;4.380;2022-12-18T11:55:54;1.70;1.00
22682;DHT22;11508;50.856;4.380;2022-12-18T12:09:01;1.60;99.90
22682;DHT22;11508;50.856;4.380;2022-12-18T12:17:06;1.70;1.00
22682;DHT22;11508;50.856;4.380;2022-12-18T12:25:25;1.80;1.00
22682;DHT22;11508;50.856;4.380;2022-12-18T12:30:57;1.80;1.00
22682;DHT22;11508;50.856;4.380;2022-12-18T12:39:01;1.90;1.00
22682;DHT22;11508;50.856;4.380;2022-12-18T12:41:32;1.90;1.00
22682;DHT22;11508;50.856;4.380;2022-12-18T12:44:27;1.70;1.00
22682;DHT22;11508;50.856;4.380;2022-12-18T12:47:00;1.70;1.00
22682;DHT22;11508;50.856;4.380;2022-12-18T12:49:29;1.60;1.00
22682;DHT22;11508;50.856;4.380;2022-12-18T12:54:43;1.80;1.00
22682;DHT22;11508;50.856;4.380;2022-12-18T13:05:18;1.60;1.00
22682;DHT22;11508;50.856;4.380;2022-12-18T13:08:04;1.70;1.00
22682;DHT22;11508;50.856;4.380;2022-12-18T13:10:37;1.80;1.00
22682;DHT22;11508;50.856;4.380;2022-12-18T13:13:10;1.80;1.00
22682;DHT22;11508;50.856;4.380;2022-12-18T13:15:47;1.90;1.00
22682;DHT22;11508;50.856;4.380;2022-12-18T13:18:14;1.90;1.00
22682;DHT22;11508;50.856;4.380;2022-12-18T13:30:58;1.70;1.00
22682;DHT22;11508;50.856;4.380;2022-12-18T13:33:37;1.80;1.00
22682;DHT22;11508;50.856;4.380;2022-12-18T13:39:08;1.90;1.00
22682;DHT22;11508;50.856;4.380;2022-12-18T13:41:33;1.90;1.00
22682;DHT22;11508;50.856;4.380;2022-12-18T13:44:26;1.80;1.00
22682;DHT22;11508;50.856;4.380;2022-12-18T13:46:55;1.70;1.00
22682;DHT22;11508;50.856;4.380;2022-12-18T13:52:14;1.80;1.00
22682;DHT22;11508;50.856;4.380;2022-12-18T13:54:42;1.60;1.00
22682;DHT22;11508;50.856;4.380;2022-12-18T13:57:30;1.60;1.00
22682;DHT22;11508;50.856;4.380;2022-12-18T13:59:57;1.50;1.00
22682;DHT22;11508;50.856;4.380;2022-12-18T14:02:26;1.50;1.00
22682;DHT22;11508;50.856;4.380;2022-12-18T14:04:52;1.50;1.00
22682;DHT22;11508;50.856;4.380;2022-12-18T14:07:25;1.50;1.00
22682;DHT22;11508;50.856;4.380;2022-12-18T14:10:01;1.50;1.00
22682;DHT22;11508;50.856;4.380;2022-12-18T14:12:30;1.60;1.00
22682;DHT22;11508;50.856;4.380;2022-12-18T14:18:15;1.40;1.00
22682;DHT22;11508;50.856;4.380;2022-12-18T14:20:44;1.40;1.00
22682;DHT22;11508;50.856;4.380;2022-12-18T14:23:37;1.40;1.00
22682;DHT22;11508;50.856;4.380;2022-12-18T14:28:48;1.50;1.00
22682;DHT22;11508;50.856;4.380;2022-12-18T14:31:25;1.50;1.00
22682;DHT22;11508;50.856;4.380;2022-12-18T14:33:52;1.60;1.00
22682;DHT22;11508;50.856;4.380;2022-12-18T14:36:21;1.50;1.00
22682;DHT22;11508;50.856;4.380;2022-12-18T14:38:55;1.60;1.00
22682;DHT22;11508;50.856;4.380;2022-12-18T14:41:22;1.70;1.00
22682;DHT22;11508;50.856;4.380;2022-12-18T14:43:52;1.60;1.00
22682;DHT22;11508;50.856;4.380;2022-12-18T14:46:38;1.70;1.00
22682;DHT22;11508;50.856;4.380;2022-12-18T14:49:04;1.70;1.00
22682;DHT22;11508;50.856;4.380;2022-12-18T14:51:33;1.80;1.00
22682;DHT22;11508;50.856;4.380;2022-12-18T14:54:05;1.60;1.00
22682;DHT22;11508;50.856;4.380;2022-12-18T14:56:37;1.70;1.00
22682;DHT22;11508;50.856;4.380;2022-12-18T14:59:13;1.60;1.00
22682;DHT22;11508;50.856;4.380;2022-12-18T15:01:47;1.60;1.00
22682;DHT22;11508;50.856;4.380;2022-12-18T15:09:37;1.70;1.00
22682;DHT22;11508;50.856;4.380;2022-12-18T15:12:04;1.70;1.00
22682;DHT22;11508;50.856;4.380;2022-12-18T15:14:40;1.60;1.00
22682;DHT22;11508;50.856;4.380;2022-12-18T15:17:35;1.60;1.00
22682;DHT22;11508;50.856;4.380;2022-12-18T15:20:09;1.60;1.00
22682;DHT22;11508;50.856;4.380;2022-12-18T15:22:36;1.50;1.00
22682;DHT22;11508;50.856;4.380;2022-12-18T15:25:03;1.50;1.00
22682;DHT22;11508;50.856;4.380;2022-12-18T15:27:48;1.60;1.00
22682;DHT22;11508;50.856;4.380;2022-12-18T15:30:20;1.60;1.00
22682;DHT22;11508;50.856;4.380;2022-12-18T15:32:47;1.60;1.00
22682;DHT22;11508;50.856;4.380;2022-12-18T15:35:24;1.70;1.00
22682;DHT22;11508;50.856;4.380;2022-12-18T15:37:51;1.70;1.00
22682;DHT22;11508;50.856;4.380;2022-12-18T15:40:20;1.60;1.00
22682;DHT22;11508;50.856;4.380;2022-12-18T15:42:46;1.60;1.00
22682;DHT22;11508;50.856;4.380;2022-12-18T15:45:31;1.60;1.00
22682;DHT22;11508;50.856;4.380;2022-12-18T15:47:57;1.60;1.00
22682;DHT22;11508;50.856;4.380;2022-12-18T15:50:23;1.60;1.00
22682;DHT22;11508;50.856;4.380;2022-12-18T15:52:51;1.60;1.00
22682;DHT22;11508;50.856;4.380;2022-12-18T15:55:22;1.60;1.00
22682;DHT22;11508;50.856;4.380;2022-12-18T15:58:08;1.70;1.00
22682;DHT22;11508;50.856;4.380;2022-12-18T16:00:35;1.70;1.00
22682;DHT22;11508;50.856;4.380;2022-12-18T16:03:02;1.60;1.00
22682;DHT22;11508;50.856;4.380;2022-12-18T16:05:29;1.60;1.00
22682;DHT22;11508;50.856;4.380;2022-12-18T16:07:55;1.70;1.00
22682;DHT22;11508;50.856;4.380;2022-12-18T16:10:26;1.70;1.00
22682;DHT22;11508;50.856;4.380;2022-12-18T16:12:52;1.70;1.00
22682;DHT22;11508;50.856;4.380;2022-12-18T16:15:18;1.70;1.00
22682;DHT22;11508;50.856;4.380;2022-12-18T16:17:44;1.70;1.00
22682;DHT22;11508;50.856;4.380;2022-12-18T16:20:16;1.70;1.00
22682;DHT22;11508;50.856;4.380;2022-12-18T16:22:52;1.70;1.00
22682;DHT22;11508;50.856;4.380;2022-12-18T16:25:23;1.70;1.00
22682;DHT22;11508;50.856;4.380;2022-12-18T16:27:50;1.80;1.00
22682;DHT22;11508;50.856;4.380;2022-12-18T16:30:21;1.80;1.00
22682;DHT22;11508;50.856;4.380;2022-12-18T16:32:47;1.80;1.00
22682;DHT22;11508;50.856;4.380;2022-12-18T16:35:15;1.80;1.00
22682;DHT22;11508;50.856;4.380;2022-12-18T16:37:41;1.90;1.00
22682;DHT22;11508;50.856;4.380;2022-12-18T16:40:09;1.80;1.00
22682;DHT22;11508;50.856;4.380;2022-12-18T16:42:36;1.90;1.00
22682;DHT22;11508;50.856;4.380;2022-12-18T16:45:03;1.90;1.00
22682;DHT22;11508;50.856;4.380;2022-12-18T16:47:30;2.00;1.00
22682;DHT22;11508;50.856;4.380;2022-12-18T16:49:55;2.00;1.00
22682;DHT22;11508;50.856;4.380;2022-12-18T16:52:21;2.00;1.00
22682;DHT22;11508;50.856;4.380;2022-12-18T16:54:47;2.00;1.00
22682;DHT22;11508;50.856;4.380;2022-12-18T16:57:15;2.00;1.00
22682;DHT22;11508;50.856;4.380;2022-12-18T16:59:42;2.00;1.00
22682;DHT22;11508;50.856;4.380;2022-12-18T17:02:19;2.10;1.00
22682;DHT22;11508;50.856;4.380;2022-12-18T17:04:45;2.10;1.00
22682;DHT22;11508;50.856;4.380;2022-12-18T17:07:11;2.20;1.00
22682;DHT22;11508;50.856;4.380;2022-12-18T17:09:38;2.20;1.00
22682;DHT22;11508;50.856;4.380;2022-12-18T17:12:03;2.20;1.00
22682;DHT22;11508;50.856;4.380;2022-12-18T17:14:31;2.20;1.00
22682;DHT22;11508;50.856;4.380;2022-12-18T17:16:56;2.20;1.00
22682;DHT22;11508;50.856;4.380;2022-12-18T17:19:26;2.20;1.00
22682;DHT22;11508;50.856;4.380;2022-12-18T17:21:52;2.30;1.00
22682;DHT22;11508;50.856;4.380;2022-12-18T17:24:19;2.30;1.00
22682;DHT22;11508;50.856;4.380;2022-12-18T17:26:45;2.30;1.00
22682;DHT22;11508;50.856;4.380;2022-12-18T17:29:17;2.30;1.00
22682;DHT22;11508;50.856;4.380;2022-12-18T17:31:43;2.30;1.00
22682;DHT22;11508;50.856;4.380;2022-12-18T17:34:10;2.30;1.00
22682;DHT22;11508;50.856;4.380;2022-12-18T17:36:36;2.40;1.00
22682;DHT22;11508;50.856;4.380;2022-12-18T17:39:03;2.30;1.00
22682;DHT22;11508;50.856;4.380;2022-12-18T17:41:32;2.20;1.00
22682;DHT22;11508;50.856;4.380;2022-12-18T17:44:03;2.20;1.00
22682;DHT22;11508;50.856;4.380;2022-12-18T17:46:30;2.20;1.00
22682;DHT22;11508;50.856;4.380;2022-12-18T17:49:00;2.10;1.00
22682;DHT22;11508;50.856;4.380;2022-12-18T17:51:26;2.10;1.00
22682;DHT22;11508;50.856;4.380;2022-12-18T17:53:52;2.10;1.00
22682;DHT22;11508;50.856;4.380;2022-12-18T17:56:20;2.10;1.00
22682;DHT22;11508;50.856;4.380;2022-12-18T17:58:46;2.00;1.00
22682;DHT22;11508;50.856;4.380;2022-12-18T18:01:14;1.90;1.00
22682;DHT22;11508;50.856;4.380;2022-12-18T18:03:40;1.90;1.00
22682;DHT22;11508;50.856;4.380;2022-12-18T18:06:06;1.80;1.00
22682;DHT22;11508;50.856;4.380;2022-12-18T18:08:33;1.80;1.00
22682;DHT22;11508;50.856;4.380;2022-12-18T18:11:08;1.80;1.00
22682;DHT22;11508;50.856;4.380;2022-12-18T18:13:53;1.80;2.50
22682;DHT22;11508;50.856;4.380;2022-12-18T18:16:26;1.80;8.10